createdAt,value
2019-05-12T00:01:39.888Z,10.30
2019-05-12T00:06:41.556Z,10.27
2019-05-12T00:11:43.327Z,10.57
2019-05-12T00:16:45.326Z,11.30
2019-05-12T00:21:48.287Z,10.87
2019-05-12T00:26:51.879Z,10.73
2019-05-12T00:31:53.370Z,9.07
2019-05-12T00:36:54.980Z,7.40
2019-05-12T00:41:58.581Z,8.23
2019-05-12T00:46:59.903Z,9.40
2019-05-12T00:52:01.574Z,11.43
2019-05-12T00:57:03.047Z,8.07
2019-05-12T01:02:04.820Z,8.27
2019-05-12T01:07:08.533Z,9.93
2019-05-12T01:12:09.870Z,9.77
2019-05-12T01:17:11.345Z,9.63
2019-05-12T01:22:12.817Z,12.47
2019-05-12T01:27:14.306Z,11.70
2019-05-12T01:32:38.077Z,85.27
2019-05-12T01:37:39.275Z,11.30
2019-05-12T01:42:40.856Z,11.47
2019-05-12T01:47:42.326Z,10.00
2019-05-12T01:52:45.114Z,10.20
2019-05-12T01:57:48.539Z,12.00
2019-05-12T02:02:50.075Z,13.33
2019-05-12T02:07:53.537Z,12.90
2019-05-12T02:12:55.203Z,15.87
2019-05-12T02:17:58.938Z,15.70
2019-05-12T02:23:00.171Z,15.23
2019-05-12T02:28:01.854Z,11.00
2019-05-12T02:33:05.244Z,10.50
2019-05-12T02:38:06.860Z,11.87
2019-05-12T02:43:08.485Z,12.63
2019-05-12T02:48:10.075Z,11.23
2019-05-12T02:53:14.564Z,11.33
2019-05-12T02:58:17.770Z,11.63
2019-05-12T03:03:20.549Z,17.77
2019-05-12T03:08:25.515Z,14.07
2019-05-12T03:13:26.217Z,12.10
2019-05-12T03:18:27.822Z,11.80
2019-05-12T03:23:29.280Z,20.43
2019-05-12T03:28:30.751Z,15.80
2019-05-12T03:33:36.120Z,9.80
2019-05-12T03:38:36.224Z,6.97
2019-05-12T03:43:38.033Z,5.57
2019-05-12T03:48:39.511Z,6.97
2019-05-12T03:53:40.984Z,8.37
2019-05-12T03:58:45.342Z,8.27
2019-05-12T04:03:45.958Z,8.57
2019-05-12T04:08:47.555Z,8.30
2019-05-12T04:13:49.168Z,8.30
2019-05-12T04:18:50.650Z,8.70
2019-05-12T04:23:54.848Z,7.97
2019-05-12T04:28:55.511Z,7.83
2019-05-12T04:33:56.988Z,8.40
2019-05-12T04:38:58.456Z,10.33
2019-05-12T04:43:59.997Z,10.13
2019-05-12T04:49:04.974Z,11.70
2019-05-12T04:54:06.076Z,13.00
2019-05-12T04:59:08.005Z,14.40
2019-05-12T05:04:09.530Z,14.90
2019-05-12T05:09:14.208Z,15.43
2019-05-12T05:14:14.638Z,16.47
2019-05-12T05:19:16.239Z,15.50
2019-05-12T05:24:17.735Z,16.50
2019-05-12T05:29:19.363Z,15.13
2019-05-12T05:34:23.456Z,15.70
2019-05-12T05:39:24.595Z,15.03
2019-05-12T05:44:29.210Z,13.60
2019-05-12T05:49:29.618Z,13.10
2019-05-12T05:54:33.672Z,12.87
2019-05-12T05:59:36.859Z,13.80
2019-05-12T06:04:39.250Z,13.53
2019-05-12T06:09:43.281Z,14.13
2019-05-12T06:14:46.716Z,15.47
2019-05-12T06:19:48.413Z,17.40
2019-05-12T06:24:56.918Z,17.80
2019-05-12T06:30:00.863Z,18.20
2019-05-12T06:35:01.396Z,21.40
2019-05-12T06:40:00.649Z,20.80
2019-05-12T06:45:03.991Z,19.73
2019-05-12T06:50:06.417Z,19.50
2019-05-12T06:55:07.994Z,21.97
2019-05-12T07:00:10.795Z,21.90
2019-05-12T07:05:14.423Z,22.53
2019-05-12T07:10:35.580Z,22.57
2019-05-12T07:15:19.819Z,28.03
2019-05-12T07:20:23.895Z,27.80
2019-05-12T07:25:31.142Z,27.07
2019-05-12T07:30:32.653Z,25.40
2019-05-12T07:35:34.095Z,25.17
2019-05-12T07:40:37.910Z,23.60
2019-05-12T07:45:44.166Z,25.23
2019-05-12T07:50:50.167Z,27.50
2019-05-12T07:55:49.665Z,26.77
2019-05-12T08:00:53.953Z,32.20
2019-05-12T08:05:59.779Z,34.23
2019-05-12T08:10:58.120Z,34.50
2019-05-12T08:15:59.644Z,37.17
2019-05-12T08:21:03.575Z,37.30
2019-05-12T08:26:12.073Z,39.57
2019-05-12T08:31:08.189Z,40.13
2019-05-12T08:36:11.725Z,42.37
2019-05-12T08:41:14.640Z,45.00
2019-05-12T08:46:16.458Z,48.03
2019-05-12T08:51:20.082Z,47.47
2019-05-12T08:56:24.029Z,47.87
2019-05-12T09:01:29.112Z,52.17
2019-05-12T09:06:30.400Z,48.30
2019-05-12T09:11:33.582Z,49.53
2019-05-12T09:16:35.260Z,49.63
2019-05-12T09:21:37.200Z,48.67
2019-05-12T09:26:38.894Z,51.00
2019-05-12T09:31:40.378Z,51.33
2019-05-12T09:36:43.780Z,48.43
2019-05-12T09:41:50.654Z,50.67
2019-05-12T09:46:48.754Z,48.67
2019-05-12T09:51:50.247Z,53.00
2019-05-12T09:56:57.810Z,52.30
2019-05-12T10:01:55.230Z,47.83
2019-05-12T10:06:56.839Z,49.93
2019-05-12T10:12:00.554Z,51.77
2019-05-12T10:17:03.624Z,53.07
2019-05-12T10:22:05.512Z,57.37
2019-05-12T10:27:08.176Z,57.33
2019-05-12T10:32:10.484Z,57.63
2019-05-12T10:37:13.318Z,54.13
2019-05-12T10:42:15.082Z,52.47
2019-05-12T10:47:16.560Z,53.10
2019-05-12T10:52:18.038Z,51.97
2019-05-12T10:57:19.652Z,55.90
2019-05-12T11:02:26.459Z,55.07
2019-05-12T11:07:28.109Z,54.30
2019-05-12T11:12:29.204Z,48.37
2019-05-12T11:17:49.897Z,52.20
2019-05-12T11:22:51.437Z,52.57
2019-05-12T11:27:54.888Z,48.50
2019-05-12T11:32:59.483Z,47.70
2019-05-12T11:38:00.917Z,44.47
2019-05-12T11:43:04.085Z,33.50
2019-05-12T11:48:10.111Z,29.20
2019-05-12T11:53:09.615Z,28.77
2019-05-12T11:58:11.765Z,29.87
2019-05-12T12:03:17.989Z,27.37
2019-05-12T12:08:16.824Z,26.77
2019-05-12T12:13:24.448Z,25.87
2019-05-12T12:18:23.533Z,30.77
2019-05-12T12:23:25.294Z,29.40
2019-05-12T12:28:26.767Z,28.57
2019-05-12T12:33:30.934Z,27.87
2019-05-12T12:38:33.467Z,25.03
2019-05-12T12:43:35.018Z,21.17
2019-05-12T12:48:36.523Z,19.17
2019-05-12T12:53:38.004Z,16.17
2019-05-12T12:58:39.490Z,16.70
2019-05-12T13:03:43.409Z,16.83
2019-05-12T13:08:44.792Z,17.67
2019-05-12T13:13:46.304Z,16.60
2019-05-12T13:18:47.777Z,14.00
2019-05-12T13:23:51.091Z,14.80
2019-05-12T13:28:54.883Z,14.73
2019-05-12T13:33:56.597Z,17.20
2019-05-12T13:38:59.314Z,18.07
2019-05-12T13:44:00.838Z,19.30
2019-05-12T13:49:03.183Z,19.83
2019-05-12T13:54:04.879Z,18.33
2019-05-12T13:59:06.354Z,20.40
2019-05-12T14:04:07.872Z,18.43
2019-05-12T14:09:09.845Z,19.73
2019-05-12T14:14:15.190Z,21.17
2019-05-12T14:19:14.842Z,22.40
2019-05-12T14:24:16.426Z,21.83
2019-05-12T14:29:20.486Z,22.93
2019-05-12T14:34:23.501Z,24.50
2019-05-12T14:39:24.661Z,23.33
2019-05-12T14:44:26.135Z,30.77
2019-05-12T14:49:30.509Z,34.30
2019-05-12T14:54:31.647Z,25.53
2019-05-12T14:59:36.698Z,24.50
2019-05-12T15:04:36.735Z,22.10
2019-05-12T15:09:38.413Z,21.53
2019-05-12T15:14:39.994Z,22.80
2019-05-12T15:19:43.891Z,21.80
2019-05-12T15:24:49.210Z,21.73
2019-05-12T15:29:49.998Z,22.00
2019-05-12T15:34:52.099Z,21.03
2019-05-12T15:39:53.592Z,21.67
2019-05-12T15:44:55.066Z,21.20
2019-05-12T15:49:57.650Z,24.80
2019-05-12T15:54:59.173Z,24.70
2019-05-12T16:00:00.770Z,21.87
2019-05-12T16:05:06.751Z,21.73
2019-05-12T16:10:09.374Z,23.70
2019-05-12T16:15:17.074Z,22.47
2019-05-12T16:20:15.619Z,22.07
2019-05-12T16:25:20.563Z,20.97
2019-05-12T16:30:25.998Z,19.23
2019-05-12T16:35:28.481Z,22.30
2019-05-12T16:40:28.961Z,20.07
2019-05-12T16:45:30.550Z,24.23
2019-05-12T16:50:34.449Z,21.63
2019-05-12T16:55:44.910Z,19.77
2019-05-12T17:00:44.030Z,22.43
2019-05-12T17:05:42.814Z,21.47
2019-05-12T17:10:49.748Z,22.30
2019-05-12T17:15:48.752Z,22.83
2019-05-12T17:20:51.606Z,21.00
2019-05-12T17:25:53.200Z,23.80
2019-05-12T17:30:54.683Z,22.27
2019-05-12T17:35:56.193Z,33.00
2019-05-12T17:41:00.676Z,24.17
2019-05-12T17:46:04.142Z,18.40
2019-05-12T17:51:04.790Z,20.50
2019-05-12T17:56:06.367Z,19.17
2019-05-12T18:01:08.067Z,21.07
2019-05-12T18:06:09.646Z,20.27
2019-05-12T18:11:11.839Z,24.30
2019-05-12T18:16:20.399Z,22.53
2019-05-12T18:21:21.677Z,22.27
2019-05-12T18:26:24.483Z,22.17
2019-05-12T18:31:25.607Z,24.87
2019-05-12T18:36:27.075Z,23.87
2019-05-12T18:41:28.554Z,22.70
2019-05-12T18:46:30.033Z,20.83
2019-05-12T18:51:34.131Z,21.23
2019-05-12T18:56:35.209Z,22.30
2019-05-12T19:01:36.883Z,22.20
2019-05-12T19:06:38.371Z,21.70
2019-05-12T19:11:42.197Z,25.30
2019-05-12T19:16:43.784Z,22.83
2019-05-12T19:21:46.884Z,23.67
2019-05-12T19:26:48.716Z,22.43
2019-05-12T19:31:52.497Z,22.83
2019-05-12T19:36:53.982Z,23.07
2019-05-12T19:41:55.570Z,24.27
2019-05-12T19:46:57.096Z,22.53
2019-05-12T19:51:58.917Z,23.13
2019-05-12T19:57:00.433Z,22.57
2019-05-12T20:02:04.073Z,21.77
2019-05-12T20:07:05.609Z,20.50
2019-05-12T20:12:13.170Z,18.87
2019-05-12T20:17:10.707Z,20.00
2019-05-12T20:22:13.820Z,20.50
2019-05-12T20:27:21.643Z,22.33
2019-05-12T20:32:20.022Z,20.60
2019-05-12T20:37:21.509Z,20.67
2019-05-12T20:42:23.622Z,20.70
2019-05-12T20:47:25.388Z,20.53
2019-05-12T20:52:27.519Z,19.00
2019-05-12T20:57:29.041Z,19.60
2019-05-12T21:02:30.527Z,21.47
2019-05-12T21:07:33.831Z,17.80
2019-05-12T21:12:39.973Z,17.80
2019-05-12T21:17:43.469Z,14.90
2019-05-12T21:22:43.750Z,15.50
2019-05-12T21:27:47.763Z,14.93
2019-05-12T21:32:56.463Z,15.90
2019-05-12T21:37:53.783Z,13.93
2019-05-12T21:42:55.445Z,14.93
2019-05-12T21:47:57.227Z,15.93
2019-05-12T21:52:59.988Z,15.80
2019-05-12T21:58:10.622Z,14.97
2019-05-12T22:03:08.091Z,13.60
2019-05-12T22:08:17.706Z,13.60
2019-05-12T22:13:17.946Z,11.50
2019-05-12T22:18:18.542Z,13.43
2019-05-12T22:23:20.323Z,11.93
2019-05-12T22:28:23.885Z,11.30
2019-05-12T22:33:25.218Z,13.57
2019-05-12T22:38:26.800Z,12.97
2019-05-12T22:43:31.453Z,13.60
2019-05-12T22:48:37.267Z,12.67
2019-05-12T22:53:35.092Z,11.33
2019-05-12T22:58:36.558Z,11.80
2019-05-12T23:03:45.337Z,11.77
2019-05-12T23:08:47.090Z,11.97
2019-05-12T23:13:44.986Z,11.53
2019-05-12T23:18:46.564Z,12.97
2019-05-12T23:23:49.850Z,12.57
2019-05-12T23:28:53.473Z,12.93
2019-05-12T23:33:54.866Z,12.70
2019-05-12T23:39:00.526Z,13.37
2019-05-12T23:43:59.724Z,13.93
2019-05-12T23:49:03.658Z,17.60
2019-05-12T23:54:04.590Z,16.93
2019-05-12T23:59:06.130Z,18.20
